sensor_id;sensor_type;location;lat;lon;timestamp;P1;durP1;ratioP1;P2;durP2;ratioP2
14766;SDS011;7475;53.558;9.970;2022-09-13T00:01:28;3.17;;;2.90;;
14766;SDS011;7475;53.558;9.970;2022-09-13T00:03:53;4.10;;;3.25;;
14766;SDS011;7475;53.558;9.970;2022-09-13T00:06:19;3.28;;;2.90;;
14766;SDS011;7475;53.558;9.970;2022-09-13T00:08:44;3.88;;;2.83;;
14766;SDS011;7475;53.558;9.970;2022-09-13T00:11:16;3.33;;;3.03;;
14766;SDS011;7475;53.558;9.970;2022-09-13T00:13:42;3.30;;;2.80;;
14766;SDS011;7475;53.558;9.970;2022-09-13T00:16:11;3.35;;;3.00;;
14766;SDS011;7475;53.558;9.970;2022-09-13T00:18:37;3.38;;;2.90;;
14766;SDS011;7475;53.558;9.970;2022-09-13T00:21:03;4.40;;;3.20;;
14766;SDS011;7475;53.558;9.970;2022-09-13T00:23:28;3.40;;;3.10;;
14766;SDS011;7475;53.558;9.970;2022-09-13T00:26:01;6.05;;;2.60;;
14766;SDS011;7475;53.558;9.970;2022-09-13T00:28:26;3.03;;;2.72;;
14766;SDS011;7475;53.558;9.970;2022-09-13T00:30:51;3.77;;;2.83;;
14766;SDS011;7475;53.558;9.970;2022-09-13T00:33:17;3.25;;;2.80;;
14766;SDS011;7475;53.558;9.970;2022-09-13T00:35:42;5.10;;;2.83;;
14766;SDS011;7475;53.558;9.970;2022-09-13T00:38:07;3.13;;;2.83;;
14766;SDS011;7475;53.558;9.970;2022-09-13T00:40:35;3.23;;;2.90;;
14766;SDS011;7475;53.558;9.970;2022-09-13T00:43:00;3.40;;;3.10;;
14766;SDS011;7475;53.558;9.970;2022-09-13T00:45:26;7.07;;;3.85;;
14766;SDS011;7475;53.558;9.970;2022-09-13T00:47:58;4.47;;;4.07;;
14766;SDS011;7475;53.558;9.970;2022-09-13T00:50:28;4.43;;;4.00;;
14766;SDS011;7475;53.558;9.970;2022-09-13T00:52:57;9.45;;;4.20;;
14766;SDS011;7475;53.558;9.970;2022-09-13T00:55:24;4.93;;;3.35;;
14766;SDS011;7475;53.558;9.970;2022-09-13T00:57:51;3.65;;;3.20;;
14766;SDS011;7475;53.558;9.970;2022-09-13T01:00:18;3.85;;;3.15;;
14766;SDS011;7475;53.558;9.970;2022-09-13T01:02:44;3.08;;;2.78;;
14766;SDS011;7475;53.558;9.970;2022-09-13T01:05:11;5.03;;;3.50;;
14766;SDS011;7475;53.558;9.970;2022-09-13T01:07:38;5.15;;;3.70;;
14766;SDS011;7475;53.558;9.970;2022-09-13T01:10:04;5.60;;;4.03;;
14766;SDS011;7475;53.558;9.970;2022-09-13T01:12:36;7.07;;;5.40;;
14766;SDS011;7475;53.558;9.970;2022-09-13T01:15:04;5.70;;;5.10;;
14766;SDS011;7475;53.558;9.970;2022-09-13T01:17:30;7.63;;;4.85;;
14766;SDS011;7475;53.558;9.970;2022-09-13T01:19:57;5.95;;;4.78;;
14766;SDS011;7475;53.558;9.970;2022-09-13T01:27:56;5.28;;;4.78;;
14766;SDS011;7475;53.558;9.970;2022-09-13T01:30:35;5.63;;;4.72;;
14766;SDS011;7475;53.558;9.970;2022-09-13T01:38:58;7.72;;;5.15;;
14766;SDS011;7475;53.558;9.970;2022-09-13T01:43:34;6.60;;;5.25;;
14766;SDS011;7475;53.558;9.970;2022-09-13T01:56:12;5.10;;;4.60;;
14766;SDS011;7475;53.558;9.970;2022-09-13T01:58:40;7.45;;;5.15;;
14766;SDS011;7475;53.558;9.970;2022-09-13T02:01:12;9.20;;;4.63;;
14766;SDS011;7475;53.558;9.970;2022-09-13T02:03:43;5.10;;;4.10;;
14766;SDS011;7475;53.558;9.970;2022-09-13T02:06:13;6.68;;;4.57;;
14766;SDS011;7475;53.558;9.970;2022-09-13T02:08:41;4.88;;;4.25;;
14766;SDS011;7475;53.558;9.970;2022-09-13T02:11:14;7.22;;;4.68;;
14766;SDS011;7475;53.558;9.970;2022-09-13T02:13:48;5.88;;;4.60;;
14766;SDS011;7475;53.558;9.970;2022-09-13T02:16:17;5.75;;;4.45;;
14766;SDS011;7475;53.558;9.970;2022-09-13T02:18:45;7.10;;;4.80;;
14766;SDS011;7475;53.558;9.970;2022-09-13T02:21:13;7.90;;;4.80;;
14766;SDS011;7475;53.558;9.970;2022-09-13T02:23:49;5.93;;;4.70;;
14766;SDS011;7475;53.558;9.970;2022-09-13T02:26:15;6.13;;;5.20;;
14766;SDS011;7475;53.558;9.970;2022-09-13T02:28:47;6.03;;;5.43;;
14766;SDS011;7475;53.558;9.970;2022-09-13T02:31:13;6.38;;;5.53;;
14766;SDS011;7475;53.558;9.970;2022-09-13T02:33:53;6.00;;;5.22;;
14766;SDS011;7475;53.558;9.970;2022-09-13T02:36:25;5.55;;;5.00;;
14766;SDS011;7475;53.558;9.970;2022-09-13T02:39:02;6.22;;;5.63;;
14766;SDS011;7475;53.558;9.970;2022-09-13T02:44:00;7.75;;;6.10;;
14766;SDS011;7475;53.558;9.970;2022-09-13T02:49:25;7.13;;;5.53;;
14766;SDS011;7475;53.558;9.970;2022-09-13T02:51:57;8.38;;;6.22;;
14766;SDS011;7475;53.558;9.970;2022-09-13T02:59:34;7.10;;;6.03;;
14766;SDS011;7475;53.558;9.970;2022-09-13T03:02:04;6.40;;;5.80;;
14766;SDS011;7475;53.558;9.970;2022-09-13T03:04:31;6.63;;;5.85;;
14766;SDS011;7475;53.558;9.970;2022-09-13T03:06:56;6.82;;;6.13;;
14766;SDS011;7475;53.558;9.970;2022-09-13T03:09:21;9.48;;;6.78;;
14766;SDS011;7475;53.558;9.970;2022-09-13T03:11:54;7.05;;;6.30;;
14766;SDS011;7475;53.558;9.970;2022-09-13T03:14:39;11.15;;;6.82;;
14766;SDS011;7475;53.558;9.970;2022-09-13T03:27:17;9.93;;;7.97;;
14766;SDS011;7475;53.558;9.970;2022-09-13T03:29:57;9.35;;;7.80;;
14766;SDS011;7475;53.558;9.970;2022-09-13T03:37:35;10.97;;;9.43;;
14766;SDS011;7475;53.558;9.970;2022-09-13T03:42:44;12.55;;;9.20;;
14766;SDS011;7475;53.558;9.970;2022-09-13T03:45:11;13.43;;;10.25;;
14766;SDS011;7475;53.558;9.970;2022-09-13T03:47:39;10.85;;;9.75;;
14766;SDS011;7475;53.558;9.970;2022-09-13T03:50:04;11.73;;;10.38;;
14766;SDS011;7475;53.558;9.970;2022-09-13T03:52:31;13.70;;;11.05;;
14766;SDS011;7475;53.558;9.970;2022-09-13T03:54:57;14.18;;;11.40;;
14766;SDS011;7475;53.558;9.970;2022-09-13T03:57:22;12.25;;;10.95;;
14766;SDS011;7475;53.558;9.970;2022-09-13T03:59:51;13.07;;;11.43;;
14766;SDS011;7475;53.558;9.970;2022-09-13T04:02:17;15.30;;;11.70;;
14766;SDS011;7475;53.558;9.970;2022-09-13T04:04:42;14.95;;;12.43;;
14766;SDS011;7475;53.558;9.970;2022-09-13T04:07:08;13.73;;;12.35;;
14766;SDS011;7475;53.558;9.970;2022-09-13T04:09:34;14.05;;;12.65;;
14766;SDS011;7475;53.558;9.970;2022-09-13T04:11:59;14.13;;;12.50;;
14766;SDS011;7475;53.558;9.970;2022-09-13T04:14:25;17.08;;;13.40;;
14766;SDS011;7475;53.558;9.970;2022-09-13T04:16:54;14.88;;;13.32;;
14766;SDS011;7475;53.558;9.970;2022-09-13T04:19:20;14.88;;;13.38;;
14766;SDS011;7475;53.558;9.970;2022-09-13T04:21:46;16.75;;;13.80;;
14766;SDS011;7475;53.558;9.970;2022-09-13T04:24:11;14.45;;;12.85;;
14766;SDS011;7475;53.558;9.970;2022-09-13T04:26:37;14.70;;;13.05;;
14766;SDS011;7475;53.558;9.970;2022-09-13T04:29:03;16.92;;;13.45;;
14766;SDS011;7475;53.558;9.970;2022-09-13T04:31:28;14.53;;;12.90;;
14766;SDS011;7475;53.558;9.970;2022-09-13T04:33:53;15.43;;;13.38;;
14766;SDS011;7475;53.558;9.970;2022-09-13T04:36:18;17.05;;;13.68;;
14766;SDS011;7475;53.558;9.970;2022-09-13T04:38:45;16.25;;;14.10;;
14766;SDS011;7475;53.558;9.970;2022-09-13T04:41:10;17.25;;;14.38;;
14766;SDS011;7475;53.558;9.970;2022-09-13T04:43:37;15.80;;;12.70;;
14766;SDS011;7475;53.558;9.970;2022-09-13T04:46:02;17.10;;;14.02;;
14766;SDS011;7475;53.558;9.970;2022-09-13T04:48:27;14.75;;;13.15;;
14766;SDS011;7475;53.558;9.970;2022-09-13T04:50:53;19.05;;;15.18;;
14766;SDS011;7475;53.558;9.970;2022-09-13T04:53:24;16.05;;;13.55;;
14766;SDS011;7475;53.558;9.970;2022-09-13T04:55:49;19.52;;;15.70;;
14766;SDS011;7475;53.558;9.970;2022-09-13T04:58:14;20.80;;;16.80;;
14766;SDS011;7475;53.558;9.970;2022-09-13T05:00:40;19.77;;;15.77;;
14766;SDS011;7475;53.558;9.970;2022-09-13T05:03:05;24.50;;;18.10;;
14766;SDS011;7475;53.558;9.970;2022-09-13T05:05:30;20.52;;;16.00;;
14766;SDS011;7475;53.558;9.970;2022-09-13T05:07:56;20.42;;;16.98;;
14766;SDS011;7475;53.558;9.970;2022-09-13T05:10:21;25.67;;;19.83;;
14766;SDS011;7475;53.558;9.970;2022-09-13T05:12:47;23.75;;;18.88;;
14766;SDS011;7475;53.558;9.970;2022-09-13T05:15:12;26.80;;;18.92;;
14766;SDS011;7475;53.558;9.970;2022-09-13T05:17:37;25.23;;;19.35;;
14766;SDS011;7475;53.558;9.970;2022-09-13T05:20:03;27.30;;;19.33;;
14766;SDS011;7475;53.558;9.970;2022-09-13T05:22:29;28.52;;;21.42;;
14766;SDS011;7475;53.558;9.970;2022-09-13T05:24:54;28.13;;;20.83;;
14766;SDS011;7475;53.558;9.970;2022-09-13T05:27:20;26.75;;;20.65;;
14766;SDS011;7475;53.558;9.970;2022-09-13T05:29:45;29.05;;;22.15;;
14766;SDS011;7475;53.558;9.970;2022-09-13T05:32:11;28.73;;;20.50;;
14766;SDS011;7475;53.558;9.970;2022-09-13T05:34:36;24.75;;;18.67;;
14766;SDS011;7475;53.558;9.970;2022-09-13T05:37:01;27.27;;;20.73;;
14766;SDS011;7475;53.558;9.970;2022-09-13T05:39:26;25.73;;;20.25;;
14766;SDS011;7475;53.558;9.970;2022-09-13T05:41:52;26.10;;;19.70;;
14766;SDS011;7475;53.558;9.970;2022-09-13T05:44:17;24.80;;;18.92;;
14766;SDS011;7475;53.558;9.970;2022-09-13T05:46:45;25.40;;;19.77;;
14766;SDS011;7475;53.558;9.970;2022-09-13T05:49:10;25.38;;;19.10;;
14766;SDS011;7475;53.558;9.970;2022-09-13T05:51:36;26.45;;;19.52;;
14766;SDS011;7475;53.558;9.970;2022-09-13T05:54:01;24.90;;;18.77;;
14766;SDS011;7475;53.558;9.970;2022-09-13T05:56:27;25.58;;;19.35;;
14766;SDS011;7475;53.558;9.970;2022-09-13T05:58:53;22.50;;;19.05;;
14766;SDS011;7475;53.558;9.970;2022-09-13T06:01:20;24.45;;;18.80;;
14766;SDS011;7475;53.558;9.970;2022-09-13T06:03:46;23.23;;;20.08;;
14766;SDS011;7475;53.558;9.970;2022-09-13T06:06:11;23.05;;;19.63;;
14766;SDS011;7475;53.558;9.970;2022-09-13T06:08:36;26.07;;;20.47;;
14766;SDS011;7475;53.558;9.970;2022-09-13T06:11:02;28.23;;;21.17;;
14766;SDS011;7475;53.558;9.970;2022-09-13T06:13:28;23.00;;;19.27;;
14766;SDS011;7475;53.558;9.970;2022-09-13T06:15:54;28.73;;;20.95;;
14766;SDS011;7475;53.558;9.970;2022-09-13T06:18:20;26.45;;;20.52;;
14766;SDS011;7475;53.558;9.970;2022-09-13T06:20:45;26.65;;;20.40;;
14766;SDS011;7475;53.558;9.970;2022-09-13T06:23:11;29.02;;;21.92;;
14766;SDS011;7475;53.558;9.970;2022-09-13T06:25:36;30.55;;;21.73;;
14766;SDS011;7475;53.558;9.970;2022-09-13T06:28:01;26.60;;;20.65;;
14766;SDS011;7475;53.558;9.970;2022-09-13T06:30:27;26.38;;;20.20;;
14766;SDS011;7475;53.558;9.970;2022-09-13T06:32:54;28.40;;;21.20;;
14766;SDS011;7475;53.558;9.970;2022-09-13T06:35:20;26.88;;;21.90;;
14766;SDS011;7475;53.558;9.970;2022-09-13T06:37:45;25.57;;;20.57;;
14766;SDS011;7475;53.558;9.970;2022-09-13T06:40:10;26.43;;;21.63;;
14766;SDS011;7475;53.558;9.970;2022-09-13T06:42:37;24.17;;;20.25;;
14766;SDS011;7475;53.558;9.970;2022-09-13T06:45:02;24.63;;;20.23;;
14766;SDS011;7475;53.558;9.970;2022-09-13T06:47:28;22.15;;;19.58;;
14766;SDS011;7475;53.558;9.970;2022-09-13T06:49:53;22.58;;;18.55;;
14766;SDS011;7475;53.558;9.970;2022-09-13T06:52:18;20.38;;;18.08;;
14766;SDS011;7475;53.558;9.970;2022-09-13T06:54:43;20.37;;;18.20;;
14766;SDS011;7475;53.558;9.970;2022-09-13T06:57:09;19.77;;;16.95;;
14766;SDS011;7475;53.558;9.970;2022-09-13T06:59:35;19.42;;;17.15;;
14766;SDS011;7475;53.558;9.970;2022-09-13T07:02:00;19.23;;;17.10;;
14766;SDS011;7475;53.558;9.970;2022-09-13T07:04:25;18.08;;;16.13;;
14766;SDS011;7475;53.558;9.970;2022-09-13T07:06:55;17.88;;;15.98;;
14766;SDS011;7475;53.558;9.970;2022-09-13T07:09:20;17.43;;;15.23;;
14766;SDS011;7475;53.558;9.970;2022-09-13T07:11:46;17.75;;;15.82;;
14766;SDS011;7475;53.558;9.970;2022-09-13T07:14:12;16.77;;;14.63;;
14766;SDS011;7475;53.558;9.970;2022-09-13T07:16:37;17.60;;;15.13;;
14766;SDS011;7475;53.558;9.970;2022-09-13T07:19:04;17.75;;;15.45;;
14766;SDS011;7475;53.558;9.970;2022-09-13T07:21:30;16.33;;;13.23;;
14766;SDS011;7475;53.558;9.970;2022-09-13T07:23:56;19.42;;;13.90;;
14766;SDS011;7475;53.558;9.970;2022-09-13T07:26:22;15.32;;;12.95;;
14766;SDS011;7475;53.558;9.970;2022-09-13T07:28:49;15.98;;;14.32;;
14766;SDS011;7475;53.558;9.970;2022-09-13T07:31:15;16.27;;;13.48;;
14766;SDS011;7475;53.558;9.970;2022-09-13T07:33:40;17.42;;;14.20;;
14766;SDS011;7475;53.558;9.970;2022-09-13T07:36:06;16.40;;;13.73;;
14766;SDS011;7475;53.558;9.970;2022-09-13T07:38:33;16.17;;;13.93;;
14766;SDS011;7475;53.558;9.970;2022-09-13T07:40:58;18.40;;;14.10;;
14766;SDS011;7475;53.558;9.970;2022-09-13T07:43:24;16.08;;;12.90;;
14766;SDS011;7475;53.558;9.970;2022-09-13T07:46:24;16.35;;;13.25;;
14766;SDS011;7475;53.558;9.970;2022-09-13T07:48:42;15.07;;;12.55;;
14766;SDS011;7475;53.558;9.970;2022-09-13T07:51:09;16.48;;;14.35;;
14766;SDS011;7475;53.558;9.970;2022-09-13T07:53:35;12.20;;;9.68;;
14766;SDS011;7475;53.558;9.970;2022-09-13T07:56:10;11.88;;;10.00;;
14766;SDS011;7475;53.558;9.970;2022-09-13T07:58:37;11.15;;;9.35;;
14766;SDS011;7475;53.558;9.970;2022-09-13T08:01:06;11.52;;;8.90;;
14766;SDS011;7475;53.558;9.970;2022-09-13T08:03:32;12.45;;;9.65;;
14766;SDS011;7475;53.558;9.970;2022-09-13T08:05:58;10.95;;;8.30;;
14766;SDS011;7475;53.558;9.970;2022-09-13T08:08:23;9.27;;;6.30;;
14766;SDS011;7475;53.558;9.970;2022-09-13T08:10:48;9.47;;;5.43;;
14766;SDS011;7475;53.558;9.970;2022-09-13T08:13:16;10.68;;;6.35;;
14766;SDS011;7475;53.558;9.970;2022-09-13T08:15:42;12.43;;;6.22;;
14766;SDS011;7475;53.558;9.970;2022-09-13T08:18:07;8.75;;;6.40;;
14766;SDS011;7475;53.558;9.970;2022-09-13T08:20:39;9.38;;;5.40;;
14766;SDS011;7475;53.558;9.970;2022-09-13T08:23:05;9.23;;;4.75;;
14766;SDS011;7475;53.558;9.970;2022-09-13T08:25:31;8.52;;;5.30;;
14766;SDS011;7475;53.558;9.970;2022-09-13T08:27:57;8.57;;;5.38;;
14766;SDS011;7475;53.558;9.970;2022-09-13T08:30:22;8.83;;;4.13;;
14766;SDS011;7475;53.558;9.970;2022-09-13T08:32:48;6.50;;;3.10;;
14766;SDS011;7475;53.558;9.970;2022-09-13T08:35:14;7.10;;;3.22;;
14766;SDS011;7475;53.558;9.970;2022-09-13T08:37:39;12.80;;;3.20;;
14766;SDS011;7475;53.558;9.970;2022-09-13T08:40:04;6.27;;;2.47;;
14766;SDS011;7475;53.558;9.970;2022-09-13T08:42:45;6.82;;;2.22;;
14766;SDS011;7475;53.558;9.970;2022-09-13T08:45:14;4.20;;;2.05;;
14766;SDS011;7475;53.558;9.970;2022-09-13T08:47:40;5.05;;;2.30;;
14766;SDS011;7475;53.558;9.970;2022-09-13T08:50:14;7.05;;;2.30;;
14766;SDS011;7475;53.558;9.970;2022-09-13T08:55:16;4.50;;;1.47;;
14766;SDS011;7475;53.558;9.970;2022-09-13T09:00:47;3.80;;;1.40;;
14766;SDS011;7475;53.558;9.970;2022-09-13T09:05:57;6.80;;;2.08;;
14766;SDS011;7475;53.558;9.970;2022-09-13T09:08:28;3.28;;;1.20;;
14766;SDS011;7475;53.558;9.970;2022-09-13T09:10:55;3.92;;;1.13;;
14766;SDS011;7475;53.558;9.970;2022-09-13T09:13:28;3.97;;;1.25;;
14766;SDS011;7475;53.558;9.970;2022-09-13T09:15:59;5.15;;;1.55;;
14766;SDS011;7475;53.558;9.970;2022-09-13T09:18:33;10.07;;;1.55;;
14766;SDS011;7475;53.558;9.970;2022-09-13T09:21:00;4.88;;;1.40;;
14766;SDS011;7475;53.558;9.970;2022-09-13T09:23:34;4.85;;;1.63;;
14766;SDS011;7475;53.558;9.970;2022-09-13T09:26:11;2.88;;;1.10;;
14766;SDS011;7475;53.558;9.970;2022-09-13T09:28:37;6.60;;;1.42;;
14766;SDS011;7475;53.558;9.970;2022-09-13T09:31:14;3.90;;;1.20;;
14766;SDS011;7475;53.558;9.970;2022-09-13T09:36:12;4.70;;;1.23;;
14766;SDS011;7475;53.558;9.970;2022-09-13T09:38:40;4.43;;;1.35;;
14766;SDS011;7475;53.558;9.970;2022-09-13T09:41:12;4.13;;;1.27;;
14766;SDS011;7475;53.558;9.970;2022-09-13T09:44:26;4.28;;;1.13;;
14766;SDS011;7475;53.558;9.970;2022-09-13T09:46:27;2.95;;;1.30;;
14766;SDS011;7475;53.558;9.970;2022-09-13T09:48:53;5.20;;;1.38;;
14766;SDS011;7475;53.558;9.970;2022-09-13T09:51:20;4.70;;;1.63;;
14766;SDS011;7475;53.558;9.970;2022-09-13T09:53:47;3.85;;;1.38;;
14766;SDS011;7475;53.558;9.970;2022-09-13T09:56:17;8.98;;;1.67;;
14766;SDS011;7475;53.558;9.970;2022-09-13T09:58:44;4.63;;;1.50;;
14766;SDS011;7475;53.558;9.970;2022-09-13T10:01:13;5.68;;;1.90;;
14766;SDS011;7475;53.558;9.970;2022-09-13T10:03:40;5.65;;;2.28;;
14766;SDS011;7475;53.558;9.970;2022-09-13T10:06:07;6.75;;;1.50;;
14766;SDS011;7475;53.558;9.970;2022-09-13T10:08:33;6.55;;;1.52;;
14766;SDS011;7475;53.558;9.970;2022-09-13T10:11:00;6.35;;;1.52;;
14766;SDS011;7475;53.558;9.970;2022-09-13T10:13:26;3.97;;;1.30;;
14766;SDS011;7475;53.558;9.970;2022-09-13T10:18:24;5.68;;;1.63;;
14766;SDS011;7475;53.558;9.970;2022-09-13T10:21:04;5.40;;;1.40;;
14766;SDS011;7475;53.558;9.970;2022-09-13T10:23:30;4.88;;;1.92;;
14766;SDS011;7475;53.558;9.970;2022-09-13T10:26:06;8.82;;;4.57;;
14766;SDS011;7475;53.558;9.970;2022-09-13T10:28:35;6.10;;;2.05;;
14766;SDS011;7475;53.558;9.970;2022-09-13T10:33:36;5.95;;;1.63;;
14766;SDS011;7475;53.558;9.970;2022-09-13T10:36:04;6.72;;;2.25;;
14766;SDS011;7475;53.558;9.970;2022-09-13T10:38:31;6.53;;;2.13;;
14766;SDS011;7475;53.558;9.970;2022-09-13T10:40:58;5.53;;;3.22;;
14766;SDS011;7475;53.558;9.970;2022-09-13T10:43:26;4.85;;;2.63;;
14766;SDS011;7475;53.558;9.970;2022-09-13T10:45:52;3.85;;;1.30;;
14766;SDS011;7475;53.558;9.970;2022-09-13T10:48:18;4.22;;;1.48;;
14766;SDS011;7475;53.558;9.970;2022-09-13T10:51:27;7.00;;;1.80;;
14766;SDS011;7475;53.558;9.970;2022-09-13T10:55:57;5.70;;;1.40;;
14766;SDS011;7475;53.558;9.970;2022-09-13T10:58:22;6.22;;;2.03;;
14766;SDS011;7475;53.558;9.970;2022-09-13T11:16:31;5.97;;;2.20;;
14766;SDS011;7475;53.558;9.970;2022-09-13T11:19:07;7.15;;;3.83;;
14766;SDS011;7475;53.558;9.970;2022-09-13T11:21:45;6.00;;;1.92;;
14766;SDS011;7475;53.558;9.970;2022-09-13T11:27:05;3.58;;;1.50;;
14766;SDS011;7475;53.558;9.970;2022-09-13T11:34:30;6.28;;;1.25;;
14766;SDS011;7475;53.558;9.970;2022-09-13T11:39:38;4.72;;;1.60;;
14766;SDS011;7475;53.558;9.970;2022-09-13T11:44:53;5.57;;;1.70;;
14766;SDS011;7475;53.558;9.970;2022-09-13T11:48:07;4.78;;;1.17;;
14766;SDS011;7475;53.558;9.970;2022-09-13T11:50:27;3.65;;;1.35;;
14766;SDS011;7475;53.558;9.970;2022-09-13T11:52:59;3.33;;;1.10;;
14766;SDS011;7475;53.558;9.970;2022-09-13T11:55:29;3.45;;;1.23;;
14766;SDS011;7475;53.558;9.970;2022-09-13T11:57:57;8.90;;;3.00;;
14766;SDS011;7475;53.558;9.970;2022-09-13T12:05:16;5.53;;;1.53;;
14766;SDS011;7475;53.558;9.970;2022-09-13T12:08:09;6.07;;;1.13;;
14766;SDS011;7475;53.558;9.970;2022-09-13T12:10:32;7.65;;;1.67;;
14766;SDS011;7475;53.558;9.970;2022-09-13T12:12:58;4.82;;;1.30;;
14766;SDS011;7475;53.558;9.970;2022-09-13T12:17:55;6.47;;;1.67;;
14766;SDS011;7475;53.558;9.970;2022-09-13T12:20:29;6.93;;;1.75;;
14766;SDS011;7475;53.558;9.970;2022-09-13T12:22:54;5.40;;;1.25;;
14766;SDS011;7475;53.558;9.970;2022-09-13T12:25:23;7.00;;;2.03;;
14766;SDS011;7475;53.558;9.970;2022-09-13T12:27:57;5.25;;;2.33;;
14766;SDS011;7475;53.558;9.970;2022-09-13T12:30:27;4.50;;;1.88;;
14766;SDS011;7475;53.558;9.970;2022-09-13T12:32:57;7.28;;;2.20;;
14766;SDS011;7475;53.558;9.970;2022-09-13T12:35:27;6.07;;;1.65;;
14766;SDS011;7475;53.558;9.970;2022-09-13T12:38:15;6.32;;;1.48;;
14766;SDS011;7475;53.558;9.970;2022-09-13T12:48:39;5.85;;;1.73;;
14766;SDS011;7475;53.558;9.970;2022-09-13T12:51:14;4.03;;;1.40;;
14766;SDS011;7475;53.558;9.970;2022-09-13T13:01:46;5.90;;;1.90;;
14766;SDS011;7475;53.558;9.970;2022-09-13T13:04:19;5.80;;;1.92;;
14766;SDS011;7475;53.558;9.970;2022-09-13T13:07:05;4.45;;;1.20;;
14766;SDS011;7475;53.558;9.970;2022-09-13T13:12:05;5.50;;;1.73;;
14766;SDS011;7475;53.558;9.970;2022-09-13T13:14:48;6.40;;;1.58;;
14766;SDS011;7475;53.558;9.970;2022-09-13T13:17:38;7.25;;;2.08;;
14766;SDS011;7475;53.558;9.970;2022-09-13T13:27:50;9.07;;;2.10;;
14766;SDS011;7475;53.558;9.970;2022-09-13T13:33:26;8.40;;;1.65;;
14766;SDS011;7475;53.558;9.970;2022-09-13T13:35:49;9.05;;;4.88;;
14766;SDS011;7475;53.558;9.970;2022-09-13T13:40:52;7.00;;;1.88;;
14766;SDS011;7475;53.558;9.970;2022-09-13T13:43:30;10.88;;;2.63;;
14766;SDS011;7475;53.558;9.970;2022-09-13T13:45:56;5.00;;;1.38;;
14766;SDS011;7475;53.558;9.970;2022-09-13T13:48:36;7.40;;;1.75;;
14766;SDS011;7475;53.558;9.970;2022-09-13T13:51:11;5.53;;;1.83;;
14766;SDS011;7475;53.558;9.970;2022-09-13T13:53:38;6.20;;;1.83;;
14766;SDS011;7475;53.558;9.970;2022-09-13T13:56:05;6.60;;;2.20;;
14766;SDS011;7475;53.558;9.970;2022-09-13T13:58:43;5.07;;;1.90;;
14766;SDS011;7475;53.558;9.970;2022-09-13T14:01:10;8.18;;;2.60;;
14766;SDS011;7475;53.558;9.970;2022-09-13T14:03:41;9.50;;;2.00;;
14766;SDS011;7475;53.558;9.970;2022-09-13T14:06:15;9.32;;;1.67;;
14766;SDS011;7475;53.558;9.970;2022-09-13T14:13:53;7.50;;;2.17;;
14766;SDS011;7475;53.558;9.970;2022-09-13T14:21:21;7.97;;;1.60;;
14766;SDS011;7475;53.558;9.970;2022-09-13T14:23:47;5.80;;;1.65;;
14766;SDS011;7475;53.558;9.970;2022-09-13T14:26:12;7.53;;;2.10;;
14766;SDS011;7475;53.558;9.970;2022-09-13T14:28:38;8.80;;;1.88;;
14766;SDS011;7475;53.558;9.970;2022-09-13T14:31:03;7.68;;;2.03;;
14766;SDS011;7475;53.558;9.970;2022-09-13T14:33:31;5.65;;;2.20;;
14766;SDS011;7475;53.558;9.970;2022-09-13T14:36:01;6.63;;;1.60;;
14766;SDS011;7475;53.558;9.970;2022-09-13T14:38:27;8.32;;;2.05;;
14766;SDS011;7475;53.558;9.970;2022-09-13T14:40:58;7.72;;;2.60;;
14766;SDS011;7475;53.558;9.970;2022-09-13T14:43:24;7.28;;;2.05;;
14766;SDS011;7475;53.558;9.970;2022-09-13T14:46:33;14.57;;;5.72;;
14766;SDS011;7475;53.558;9.970;2022-09-13T14:48:48;9.18;;;2.15;;
14766;SDS011;7475;53.558;9.970;2022-09-13T14:51:20;15.55;;;10.63;;
14766;SDS011;7475;53.558;9.970;2022-09-13T14:53:48;7.07;;;1.88;;
14766;SDS011;7475;53.558;9.970;2022-09-13T14:56:21;8.85;;;2.22;;
14766;SDS011;7475;53.558;9.970;2022-09-13T14:58:50;6.20;;;2.55;;
14766;SDS011;7475;53.558;9.970;2022-09-13T15:01:18;5.00;;;1.90;;
14766;SDS011;7475;53.558;9.970;2022-09-13T15:03:44;6.80;;;2.15;;
14766;SDS011;7475;53.558;9.970;2022-09-13T15:06:23;6.35;;;1.80;;
14766;SDS011;7475;53.558;9.970;2022-09-13T15:08:49;6.95;;;2.08;;
14766;SDS011;7475;53.558;9.970;2022-09-13T15:11:25;10.60;;;2.40;;
14766;SDS011;7475;53.558;9.970;2022-09-13T15:13:59;5.65;;;1.98;;
14766;SDS011;7475;53.558;9.970;2022-09-13T15:16:28;7.75;;;2.17;;
14766;SDS011;7475;53.558;9.970;2022-09-13T15:21:51;11.98;;;2.55;;
14766;SDS011;7475;53.558;9.970;2022-09-13T15:24:22;9.40;;;1.45;;
14766;SDS011;7475;53.558;9.970;2022-09-13T15:26:59;8.27;;;3.65;;
14766;SDS011;7475;53.558;9.970;2022-09-13T15:29:24;11.65;;;3.65;;
14766;SDS011;7475;53.558;9.970;2022-09-13T15:31:50;13.57;;;5.88;;
14766;SDS011;7475;53.558;9.970;2022-09-13T15:34:22;13.43;;;7.78;;
14766;SDS011;7475;53.558;9.970;2022-09-13T15:37:09;10.00;;;5.07;;
14766;SDS011;7475;53.558;9.970;2022-09-13T15:39:43;7.03;;;2.10;;
14766;SDS011;7475;53.558;9.970;2022-09-13T15:42:09;9.05;;;5.25;;
14766;SDS011;7475;53.558;9.970;2022-09-13T15:44:34;9.77;;;4.45;;
14766;SDS011;7475;53.558;9.970;2022-09-13T15:47:00;12.37;;;7.07;;
14766;SDS011;7475;53.558;9.970;2022-09-13T15:49:28;6.57;;;3.03;;
14766;SDS011;7475;53.558;9.970;2022-09-13T15:51:55;6.65;;;2.08;;
14766;SDS011;7475;53.558;9.970;2022-09-13T15:54:20;8.70;;;2.72;;
14766;SDS011;7475;53.558;9.970;2022-09-13T15:56:49;10.43;;;1.98;;
14766;SDS011;7475;53.558;9.970;2022-09-13T15:59:19;7.05;;;2.45;;
14766;SDS011;7475;53.558;9.970;2022-09-13T16:01:44;11.45;;;2.53;;
14766;SDS011;7475;53.558;9.970;2022-09-13T16:04:11;7.80;;;2.33;;
14766;SDS011;7475;53.558;9.970;2022-09-13T16:06:36;6.80;;;2.73;;
14766;SDS011;7475;53.558;9.970;2022-09-13T16:09:06;5.75;;;2.13;;
14766;SDS011;7475;53.558;9.970;2022-09-13T16:11:34;8.23;;;2.17;;
14766;SDS011;7475;53.558;9.970;2022-09-13T16:13:59;6.30;;;1.80;;
14766;SDS011;7475;53.558;9.970;2022-09-13T16:16:25;6.38;;;2.20;;
14766;SDS011;7475;53.558;9.970;2022-09-13T16:18:50;7.70;;;2.30;;
14766;SDS011;7475;53.558;9.970;2022-09-13T16:21:15;5.67;;;2.00;;
14766;SDS011;7475;53.558;9.970;2022-09-13T16:23:40;4.78;;;1.55;;
14766;SDS011;7475;53.558;9.970;2022-09-13T16:26:05;5.93;;;2.13;;
14766;SDS011;7475;53.558;9.970;2022-09-13T16:28:31;7.65;;;3.72;;
14766;SDS011;7475;53.558;9.970;2022-09-13T16:30:56;5.70;;;1.90;;
14766;SDS011;7475;53.558;9.970;2022-09-13T16:33:21;5.30;;;1.50;;
14766;SDS011;7475;53.558;9.970;2022-09-13T16:35:46;6.38;;;1.70;;
14766;SDS011;7475;53.558;9.970;2022-09-13T16:38:12;5.82;;;1.60;;
14766;SDS011;7475;53.558;9.970;2022-09-13T16:40:38;5.35;;;2.65;;
14766;SDS011;7475;53.558;9.970;2022-09-13T16:43:04;6.35;;;1.98;;
14766;SDS011;7475;53.558;9.970;2022-09-13T16:45:29;8.30;;;2.50;;
14766;SDS011;7475;53.558;9.970;2022-09-13T16:47:54;4.70;;;2.20;;
14766;SDS011;7475;53.558;9.970;2022-09-13T16:50:20;5.75;;;2.03;;
14766;SDS011;7475;53.558;9.970;2022-09-13T16:52:45;11.87;;;2.90;;
14766;SDS011;7475;53.558;9.970;2022-09-13T16:55:10;6.50;;;3.70;;
14766;SDS011;7475;53.558;9.970;2022-09-13T16:57:36;12.18;;;8.68;;
14766;SDS011;7475;53.558;9.970;2022-09-13T17:00:03;9.30;;;4.07;;
14766;SDS011;7475;53.558;9.970;2022-09-13T17:02:32;9.27;;;2.80;;
14766;SDS011;7475;53.558;9.970;2022-09-13T17:04:57;7.32;;;2.05;;
14766;SDS011;7475;53.558;9.970;2022-09-13T17:07:23;7.85;;;2.50;;
14766;SDS011;7475;53.558;9.970;2022-09-13T17:09:48;6.93;;;2.00;;
14766;SDS011;7475;53.558;9.970;2022-09-13T17:12:13;7.22;;;2.15;;
14766;SDS011;7475;53.558;9.970;2022-09-13T17:14:39;8.80;;;2.83;;
14766;SDS011;7475;53.558;9.970;2022-09-13T17:17:06;7.88;;;2.42;;
14766;SDS011;7475;53.558;9.970;2022-09-13T17:19:32;6.13;;;2.85;;
14766;SDS011;7475;53.558;9.970;2022-09-13T17:22:01;8.02;;;3.08;;
14766;SDS011;7475;53.558;9.970;2022-09-13T17:24:27;9.43;;;3.50;;
14766;SDS011;7475;53.558;9.970;2022-09-13T17:26:54;6.75;;;2.88;;
14766;SDS011;7475;53.558;9.970;2022-09-13T17:29:20;5.40;;;2.42;;
14766;SDS011;7475;53.558;9.970;2022-09-13T17:31:46;7.60;;;3.50;;